sensor_id;sensor_type;location;lat;lon;timestamp;pressure;altitude;pressure_sealevel;temperature;humidity
54882;BME280;40775;51.448;4.742;2023-12-28T00:02:18;100841.75;;;10.59;100.00
54882;BME280;40775;51.448;4.742;2023-12-28T00:04:46;100843.50;;;10.58;100.00
54882;BME280;40775;51.448;4.742;2023-12-28T00:07:13;100844.41;;;10.60;100.00
54882;BME280;40775;51.448;4.742;2023-12-28T00:09:40;100851.44;;;10.61;100.00
54882;BME280;40775;51.448;4.742;2023-12-28T00:12:07;100856.72;;;10.63;100.00
54882;BME280;40775;51.448;4.742;2023-12-28T00:14:34;100869.00;;;10.65;100.00
54882;BME280;40775;51.448;4.742;2023-12-28T00:17:01;100864.56;;;10.61;100.00
54882;BME280;40775;51.448;4.742;2023-12-28T00:19:28;100867.19;;;10.61;100.00
54882;BME280;40775;51.448;4.742;2023-12-28T00:21:56;100865.28;;;10.54;100.00
54882;BME280;40775;51.448;4.742;2023-12-28T00:24:23;100868.91;;;10.59;100.00
54882;BME280;40775;51.448;4.742;2023-12-28T00:26:50;100877.63;;;10.58;100.00
54882;BME280;40775;51.448;4.742;2023-12-28T00:29:17;100881.03;;;10.54;100.00
54882;BME280;40775;51.448;4.742;2023-12-28T00:31:44;100880.94;;;10.49;100.00
54882;BME280;40775;51.448;4.742;2023-12-28T00:34:11;100881.94;;;10.55;100.00
54882;BME280;40775;51.448;4.742;2023-12-28T00:36:38;100900.34;;;10.56;100.00
54882;BME280;40775;51.448;4.742;2023-12-28T00:39:05;100895.09;;;10.56;100.00
54882;BME280;40775;51.448;4.742;2023-12-28T00:41:32;100906.47;;;10.57;100.00
54882;BME280;40775;51.448;4.742;2023-12-28T00:43:59;100898.63;;;10.58;100.00
54882;BME280;40775;51.448;4.742;2023-12-28T00:46:28;100883.72;;;10.57;100.00
54882;BME280;40775;51.448;4.742;2023-12-28T00:48:55;100890.72;;;10.57;100.00
54882;BME280;40775;51.448;4.742;2023-12-28T00:51:22;100904.72;;;10.57;100.00
54882;BME280;40775;51.448;4.742;2023-12-28T00:53:49;100887.94;;;10.49;100.00
54882;BME280;40775;51.448;4.742;2023-12-28T00:56:16;100889.59;;;10.44;100.00
54882;BME280;40775;51.448;4.742;2023-12-28T00:58:43;100893.25;;;10.52;100.00
54882;BME280;40775;51.448;4.742;2023-12-28T01:01:11;100896.78;;;10.54;100.00
54882;BME280;40775;51.448;4.742;2023-12-28T01:03:38;100898.56;;;10.55;100.00
54882;BME280;40775;51.448;4.742;2023-12-28T01:06:06;100892.47;;;10.58;100.00
54882;BME280;40775;51.448;4.742;2023-12-28T01:08:33;100903.75;;;10.52;100.00
54882;BME280;40775;51.448;4.742;2023-12-28T01:11:01;100903.78;;;10.53;100.00
54882;BME280;40775;51.448;4.742;2023-12-28T01:13:29;100903.81;;;10.55;100.00
54882;BME280;40775;51.448;4.742;2023-12-28T01:15:57;100903.81;;;10.55;100.00
54882;BME280;40775;51.448;4.742;2023-12-28T01:18:25;100911.53;;;10.47;100.00
54882;BME280;40775;51.448;4.742;2023-12-28T01:20:53;100909.91;;;10.54;100.00
54882;BME280;40775;51.448;4.742;2023-12-28T01:23:20;100918.59;;;10.50;100.00
54882;BME280;40775;51.448;4.742;2023-12-28T01:25:47;100908.38;;;10.65;100.00
54882;BME280;40775;51.448;4.742;2023-12-28T01:28:14;100911.84;;;10.63;100.00
54882;BME280;40775;51.448;4.742;2023-12-28T01:30:41;100915.31;;;10.62;100.00
54882;BME280;40775;51.448;4.742;2023-12-28T01:33:08;100922.41;;;10.66;100.00
54882;BME280;40775;51.448;4.742;2023-12-28T01:35:35;100916.28;;;10.67;100.00
54882;BME280;40775;51.448;4.742;2023-12-28T01:38:03;100923.28;;;10.66;100.00
54882;BME280;40775;51.448;4.742;2023-12-28T01:40:30;100916.19;;;10.62;100.00
54882;BME280;40775;51.448;4.742;2023-12-28T01:42:57;100920.66;;;10.66;100.00
54882;BME280;40775;51.448;4.742;2023-12-28T01:45:24;100920.78;;;10.71;100.00
54882;BME280;40775;51.448;4.742;2023-12-28T01:47:53;100927.53;;;10.60;100.00
54882;BME280;40775;51.448;4.742;2023-12-28T01:50:25;100926.69;;;10.62;100.00
54882;BME280;40775;51.448;4.742;2023-12-28T01:52:53;100928.38;;;10.59;100.00
54882;BME280;40775;51.448;4.742;2023-12-28T01:55:21;100937.25;;;10.64;100.00
54882;BME280;40775;51.448;4.742;2023-12-28T01:57:48;100935.44;;;10.61;100.00
54882;BME280;40775;51.448;4.742;2023-12-28T02:00:16;100943.22;;;10.57;100.00
54882;BME280;40775;51.448;4.742;2023-12-28T02:02:44;100933.59;;;10.57;100.00
54882;BME280;40775;51.448;4.742;2023-12-28T02:05:11;100940.63;;;10.58;100.00
54882;BME280;40775;51.448;4.742;2023-12-28T02:07:41;100943.19;;;10.55;100.00
54882;BME280;40775;51.448;4.742;2023-12-28T02:10:09;100952.84;;;10.56;100.00
54882;BME280;40775;51.448;4.742;2023-12-28T02:12:36;100940.69;;;10.61;100.00
54882;BME280;40775;51.448;4.742;2023-12-28T02:15:03;100939.81;;;10.62;100.00
54882;BME280;40775;51.448;4.742;2023-12-28T02:17:47;100951.25;;;10.64;100.00
54882;BME280;40775;51.448;4.742;2023-12-28T02:20:15;100953.00;;;10.64;100.00
54882;BME280;40775;51.448;4.742;2023-12-28T02:22:44;100954.78;;;10.66;100.00
54882;BME280;40775;51.448;4.742;2023-12-28T02:25:12;100943.34;;;10.63;100.00
54882;BME280;40775;51.448;4.742;2023-12-28T02:27:48;100925.81;;;10.62;100.00
54882;BME280;40775;51.448;4.742;2023-12-28T02:30:21;100939.91;;;10.65;100.00
54882;BME280;40775;51.448;4.742;2023-12-28T02:33:02;100944.31;;;10.68;100.00
54882;BME280;40775;51.448;4.742;2023-12-28T02:35:48;100934.56;;;10.61;100.00
54882;BME280;40775;51.448;4.742;2023-12-28T02:38:19;100930.00;;;10.52;100.00
54882;BME280;40775;51.448;4.742;2023-12-28T02:40:47;100927.53;;;10.60;100.00
54882;BME280;40775;51.448;4.742;2023-12-28T02:43:15;100927.47;;;10.57;100.00
54882;BME280;40775;51.448;4.742;2023-12-28T02:45:43;100931.88;;;10.59;100.00
54882;BME280;40775;51.448;4.742;2023-12-28T02:48:10;100922.19;;;10.55;100.00
54882;BME280;40775;51.448;4.742;2023-12-28T02:50:37;100926.59;;;10.56;100.00
54882;BME280;40775;51.448;4.742;2023-12-28T02:53:04;100931.03;;;10.60;100.00
54882;BME280;40775;51.448;4.742;2023-12-28T02:55:31;100940.91;;;10.70;100.00
54882;BME280;40775;51.448;4.742;2023-12-28T02:57:58;100938.97;;;10.63;100.00
54882;BME280;40775;51.448;4.742;2023-12-28T03:00:28;100937.25;;;10.64;100.00
54882;BME280;40775;51.448;4.742;2023-12-28T03:02:56;100944.38;;;10.69;100.00
54882;BME280;40775;51.448;4.742;2023-12-28T03:05:23;100937.25;;;10.64;100.00
54882;BME280;40775;51.448;4.742;2023-12-28T03:07:50;100933.00;;;10.69;100.00
54882;BME280;40775;51.448;4.742;2023-12-28T03:10:17;100929.53;;;10.70;100.00
54882;BME280;40775;51.448;4.742;2023-12-28T03:12:44;100934.84;;;10.73;100.00
54882;BME280;40775;51.448;4.742;2023-12-28T03:15:12;100925.19;;;10.72;100.00
54882;BME280;40775;51.448;4.742;2023-12-28T03:17:40;100926.22;;;10.80;100.00
54882;BME280;40775;51.448;4.742;2023-12-28T03:20:09;100939.31;;;10.78;100.00
54882;BME280;40775;51.448;4.742;2023-12-28T03:22:37;100926.22;;;10.80;100.00
54882;BME280;40775;51.448;4.742;2023-12-28T03:25:04;100927.97;;;10.79;100.00
54882;BME280;40775;51.448;4.742;2023-12-28T03:27:32;100923.50;;;10.75;100.00
54882;BME280;40775;51.448;4.742;2023-12-28T03:29:59;100917.41;;;10.78;100.00
54882;BME280;40775;51.448;4.742;2023-12-28T03:32:26;100918.19;;;10.72;100.00
54882;BME280;40775;51.448;4.742;2023-12-28T03:34:53;100934.16;;;10.83;100.00
54882;BME280;40775;51.448;4.742;2023-12-28T03:37:20;100925.38;;;10.82;100.00
54882;BME280;40775;51.448;4.742;2023-12-28T03:39:47;100925.34;;;10.79;100.00
54882;BME280;40775;51.448;4.742;2023-12-28T03:42:14;100906.94;;;10.79;100.00
54882;BME280;40775;51.448;4.742;2023-12-28T03:44:42;100919.19;;;10.79;100.00
54882;BME280;40775;51.448;4.742;2023-12-28T03:47:09;100914.78;;;10.76;100.00
54882;BME280;40775;51.448;4.742;2023-12-28T03:49:36;100926.25;;;10.81;100.00
54882;BME280;40775;51.448;4.742;2023-12-28T03:52:03;100915.69;;;10.78;100.00
54882;BME280;40775;51.448;4.742;2023-12-28T03:54:31;100920.13;;;10.82;100.00
54882;BME280;40775;51.448;4.742;2023-12-28T03:56:58;100931.44;;;10.78;100.00
54882;BME280;40775;51.448;4.742;2023-12-28T03:59:25;100909.56;;;10.79;100.00
54882;BME280;40775;51.448;4.742;2023-12-28T04:01:52;100911.50;;;10.88;100.00
54882;BME280;40775;51.448;4.742;2023-12-28T04:04:19;100905.28;;;10.83;100.00
54882;BME280;40775;51.448;4.742;2023-12-28T04:06:46;100913.13;;;10.81;100.00
54882;BME280;40775;51.448;4.742;2023-12-28T04:09:13;100910.44;;;10.78;100.00
54882;BME280;40775;51.448;4.742;2023-12-28T04:11:41;100915.78;;;10.83;100.00
54882;BME280;40775;51.448;4.742;2023-12-28T04:14:08;100917.56;;;10.86;100.00
54882;BME280;40775;51.448;4.742;2023-12-28T04:16:36;100931.50;;;10.81;100.00
54882;BME280;40775;51.448;4.742;2023-12-28T04:19:03;100932.44;;;10.85;100.00
54882;BME280;40775;51.448;4.742;2023-12-28T04:21:30;100930.63;;;10.81;100.00
54882;BME280;40775;51.448;4.742;2023-12-28T04:23:57;100929.06;;;10.91;100.00
54882;BME280;40775;51.448;4.742;2023-12-28T04:26:24;100920.13;;;10.82;100.00
54882;BME280;40775;51.448;4.742;2023-12-28T04:28:51;100931.53;;;10.83;100.00
54882;BME280;40775;51.448;4.742;2023-12-28T04:31:18;100937.66;;;10.83;100.00
54882;BME280;40775;51.448;4.742;2023-12-28T04:33:45;100936.78;;;10.83;100.00
54882;BME280;40775;51.448;4.742;2023-12-28T04:36:13;100936.88;;;10.88;100.00
54882;BME280;40775;51.448;4.742;2023-12-28T04:38:39;100947.25;;;10.81;100.00
54882;BME280;40775;51.448;4.742;2023-12-28T04:41:07;100935.19;;;10.91;100.00
54882;BME280;40775;51.448;4.742;2023-12-28T04:43:36;100934.19;;;10.84;100.00
54882;BME280;40775;51.448;4.742;2023-12-28T04:46:04;100930.66;;;10.84;100.00
54882;BME280;40775;51.448;4.742;2023-12-28T04:48:32;100937.78;;;10.90;100.00
54882;BME280;40775;51.448;4.742;2023-12-28T04:51:02;100911.34;;;10.80;100.00
54882;BME280;40775;51.448;4.742;2023-12-28T04:53:30;100927.16;;;10.83;100.00
54882;BME280;40775;51.448;4.742;2023-12-28T04:55:57;100920.13;;;10.82;100.00
54882;BME280;40775;51.448;4.742;2023-12-28T04:58:31;100931.34;;;10.74;100.00
54882;BME280;40775;51.448;4.742;2023-12-28T05:01:00;100928.56;;;10.68;100.00
54882;BME280;40775;51.448;4.742;2023-12-28T05:03:27;100924.31;;;10.73;100.00
54882;BME280;40775;51.448;4.742;2023-12-28T05:05:55;100942.63;;;10.68;100.00
54882;BME280;40775;51.448;4.742;2023-12-28T05:08:22;100942.63;;;10.68;100.00
54882;BME280;40775;51.448;4.742;2023-12-28T05:10:49;100941.03;;;10.76;100.00
54882;BME280;40775;51.448;4.742;2023-12-28T05:13:16;100942.78;;;10.76;100.00
54882;BME280;40775;51.448;4.742;2023-12-28T05:15:43;100947.19;;;10.78;100.00
54882;BME280;40775;51.448;4.742;2023-12-28T05:18:10;100952.38;;;10.75;100.00
54882;BME280;40775;51.448;4.742;2023-12-28T05:20:37;100943.69;;;10.78;100.00
54882;BME280;40775;51.448;4.742;2023-12-28T05:23:04;100929.69;;;10.79;100.00
54882;BME280;40775;51.448;4.742;2023-12-28T05:25:31;100920.13;;;10.82;100.00
54882;BME280;40775;51.448;4.742;2023-12-28T05:27:58;100922.78;;;10.84;100.00
54882;BME280;40775;51.448;4.742;2023-12-28T05:30:25;100921.06;;;10.84;100.00
54882;BME280;40775;51.448;4.742;2023-12-28T05:32:52;100920.19;;;10.86;100.00
54882;BME280;40775;51.448;4.742;2023-12-28T05:35:19;100932.72;;;10.97;100.00
54882;BME280;40775;51.448;4.742;2023-12-28T05:37:46;100927.38;;;10.94;100.00
54882;BME280;40775;51.448;4.742;2023-12-28T05:40:14;100927.38;;;10.94;100.00
54882;BME280;40775;51.448;4.742;2023-12-28T05:42:41;100936.22;;;10.98;100.00
54882;BME280;40775;51.448;4.742;2023-12-28T05:45:08;100932.63;;;10.94;100.00
54882;BME280;40775;51.448;4.742;2023-12-28T05:47:36;100929.97;;;10.93;100.00
54882;BME280;40775;51.448;4.742;2023-12-28T05:50:04;100930.97;;;10.98;100.00
54882;BME280;40775;51.448;4.742;2023-12-28T05:52:33;100936.13;;;10.95;100.00
54882;BME280;40775;51.448;4.742;2023-12-28T05:55:00;100925.72;;;10.98;100.00
54882;BME280;40775;51.448;4.742;2023-12-28T05:57:27;100932.69;;;10.96;100.00
54882;BME280;40775;51.448;4.742;2023-12-28T05:59:57;100928.41;;;11.01;100.00
54882;BME280;40775;51.448;4.742;2023-12-28T06:02:24;100936.19;;;10.96;100.00
54882;BME280;40775;51.448;4.742;2023-12-28T06:04:51;100950.28;;;11.00;100.00
54882;BME280;40775;51.448;4.742;2023-12-28T06:07:19;100930.09;;;10.97;100.00
54882;BME280;40775;51.448;4.742;2023-12-28T06:09:46;100943.97;;;10.93;100.00
54882;BME280;40775;51.448;4.742;2023-12-28T06:12:13;100945.66;;;10.90;100.00
54882;BME280;40775;51.448;4.742;2023-12-28T06:14:40;100941.53;;;11.01;100.00
54882;BME280;40775;51.448;4.742;2023-12-28T06:17:07;100943.09;;;10.93;100.00
54882;BME280;40775;51.448;4.742;2023-12-28T06:19:34;100947.47;;;10.92;100.00
54882;BME280;40775;51.448;4.742;2023-12-28T06:22:04;100955.34;;;10.92;100.00
54882;BME280;40775;51.448;4.742;2023-12-28T06:24:31;100948.25;;;10.88;100.00
54882;BME280;40775;51.448;4.742;2023-12-28T06:27:02;100948.16;;;10.83;100.00
54882;BME280;40775;51.448;4.742;2023-12-28T06:29:29;100968.44;;;10.91;100.00
54882;BME280;40775;51.448;4.742;2023-12-28T06:31:56;100955.25;;;10.88;100.00
54882;BME280;40775;51.448;4.742;2023-12-28T06:34:23;100969.13;;;10.80;100.00
54882;BME280;40775;51.448;4.742;2023-12-28T06:36:50;100970.13;;;10.87;100.00
54882;BME280;40775;51.448;4.742;2023-12-28T06:39:18;100973.56;;;10.84;100.00
54882;BME280;40775;51.448;4.742;2023-12-28T06:41:49;100981.44;;;10.84;100.00
54882;BME280;40775;51.448;4.742;2023-12-28T06:44:16;100969.25;;;10.87;100.00
54882;BME280;40775;51.448;4.742;2023-12-28T06:46:45;101003.66;;;11.88;100.00
54882;BME280;40775;51.448;4.742;2023-12-28T06:49:12;100995.09;;;12.57;100.00
54882;BME280;40775;51.448;4.742;2023-12-28T06:51:39;100972.84;;;12.98;100.00
54882;BME280;40775;51.448;4.742;2023-12-28T06:54:07;100969.66;;;13.22;100.00
54882;BME280;40775;51.448;4.742;2023-12-28T06:56:34;100962.78;;;13.38;100.00
54882;BME280;40775;51.448;4.742;2023-12-28T06:59:01;100975.22;;;13.48;100.00
54882;BME280;40775;51.448;4.742;2023-12-28T07:01:29;100967.66;;;11.85;100.00
54882;BME280;40775;51.448;4.742;2023-12-28T07:03:56;100970.34;;;10.96;100.00
54882;BME280;40775;51.448;4.742;2023-12-28T07:06:23;100992.94;;;10.90;100.00
54882;BME280;40775;51.448;4.742;2023-12-28T07:08:50;100987.75;;;10.93;100.00
54882;BME280;40775;51.448;4.742;2023-12-28T07:11:17;100998.16;;;10.88;100.00
54882;BME280;40775;51.448;4.742;2023-12-28T07:13:45;100989.47;;;10.91;100.00
54882;BME280;40775;51.448;4.742;2023-12-28T07:16:13;100993.88;;;10.93;100.00
54882;BME280;40775;51.448;4.742;2023-12-28T07:18:40;100992.09;;;10.91;100.00
54882;BME280;40775;51.448;4.742;2023-12-28T07:21:07;100993.72;;;10.86;100.00
54882;BME280;40775;51.448;4.742;2023-12-28T07:23:37;101000.72;;;10.85;100.00
54882;BME280;40775;51.448;4.742;2023-12-28T07:26:05;101000.75;;;10.87;100.00
54882;BME280;40775;51.448;4.742;2023-12-28T07:28:32;101010.41;;;10.88;100.00
54882;BME280;40775;51.448;4.742;2023-12-28T07:30:59;101014.88;;;10.92;100.00
54882;BME280;40775;51.448;4.742;2023-12-28T07:33:26;101017.50;;;10.92;100.00
54882;BME280;40775;51.448;4.742;2023-12-28T07:35:56;101009.69;;;10.95;100.00
54882;BME280;40775;51.448;4.742;2023-12-28T07:38:26;101009.50;;;10.86;100.00
54882;BME280;40775;51.448;4.742;2023-12-28T07:40:53;101020.13;;;10.92;100.00
54882;BME280;40775;51.448;4.742;2023-12-28T07:43:20;101010.53;;;10.94;100.00
54882;BME280;40775;51.448;4.742;2023-12-28T07:45:48;101034.09;;;10.91;100.00
54882;BME280;40775;51.448;4.742;2023-12-28T07:48:15;101015.75;;;10.92;100.00
54882;BME280;40775;51.448;4.742;2023-12-28T07:50:42;101013.03;;;10.88;100.00
54882;BME280;40775;51.448;4.742;2023-12-28T07:53:10;101027.94;;;10.89;100.00
54882;BME280;40775;51.448;4.742;2023-12-28T07:55:37;101026.13;;;10.86;100.00
54882;BME280;40775;51.448;4.742;2023-12-28T07:58:04;101027.84;;;10.84;100.00
54882;BME280;40775;51.448;4.742;2023-12-28T08:00:31;101027.00;;;10.87;100.00
54882;BME280;40775;51.448;4.742;2023-12-28T08:02:58;101022.66;;;10.87;100.00
54882;BME280;40775;51.448;4.742;2023-12-28T08:05:26;101024.31;;;10.83;100.00
54882;BME280;40775;51.448;4.742;2023-12-28T08:07:53;101032.34;;;10.90;100.00
54882;BME280;40775;51.448;4.742;2023-12-28T08:10:20;101035.66;;;10.81;100.00
54882;BME280;40775;51.448;4.742;2023-12-28T08:12:47;101032.19;;;10.82;100.00
54882;BME280;40775;51.448;4.742;2023-12-28T08:15:14;101034.78;;;10.80;100.00
54882;BME280;40775;51.448;4.742;2023-12-28T08:17:41;101033.88;;;10.80;100.00
54882;BME280;40775;51.448;4.742;2023-12-28T08:20:09;101038.38;;;10.86;100.00
54882;BME280;40775;51.448;4.742;2023-12-28T08:22:36;101041.25;;;10.96;100.00
54882;BME280;40775;51.448;4.742;2023-12-28T08:25:03;101041.13;;;10.92;100.00
54882;BME280;40775;51.448;4.742;2023-12-28T08:27:31;101057.72;;;10.89;100.00
54882;BME280;40775;51.448;4.742;2023-12-28T08:30:00;101046.41;;;10.93;100.00
54882;BME280;40775;51.448;4.742;2023-12-28T08:32:27;101039.28;;;10.88;100.00
54882;BME280;40775;51.448;4.742;2023-12-28T08:34:55;101052.56;;;10.94;100.00
54882;BME280;40775;51.448;4.742;2023-12-28T08:37:22;101056.94;;;10.95;100.00
54882;BME280;40775;51.448;4.742;2023-12-28T08:39:49;101044.69;;;10.94;100.00
54882;BME280;40775;51.448;4.742;2023-12-28T08:42:16;101062.34;;;10.99;100.00
54882;BME280;40775;51.448;4.742;2023-12-28T08:44:43;101051.81;;;10.98;100.00
54882;BME280;40775;51.448;4.742;2023-12-28T08:47:12;101054.50;;;11.01;100.00
54882;BME280;40775;51.448;4.742;2023-12-28T08:49:39;101051.91;;;11.02;100.00
54882;BME280;40775;51.448;4.742;2023-12-28T08:52:08;101050.97;;;11.00;100.00
54882;BME280;40775;51.448;4.742;2023-12-28T08:54:37;101054.50;;;11.01;100.00
54882;BME280;40775;51.448;4.742;2023-12-28T08:57:04;101066.00;;;11.07;100.00
54882;BME280;40775;51.448;4.742;2023-12-28T08:59:31;101065.06;;;11.04;100.00
54882;BME280;40775;51.448;4.742;2023-12-28T09:01:58;101070.25;;;11.01;100.00
54882;BME280;40775;51.448;4.742;2023-12-28T09:04:27;101072.91;;;11.02;100.00
54882;BME280;40775;51.448;4.742;2023-12-28T09:06:54;101067.81;;;11.10;100.00
54882;BME280;40775;51.448;4.742;2023-12-28T09:09:21;101079.22;;;11.10;100.00
54882;BME280;40775;51.448;4.742;2023-12-28T09:11:48;101073.13;;;11.13;100.00
54882;BME280;40775;51.448;4.742;2023-12-28T09:14:15;101078.25;;;11.07;100.00
54882;BME280;40775;51.448;4.742;2023-12-28T09:16:42;101075.84;;;11.18;100.00
54882;BME280;40775;51.448;4.742;2023-12-28T09:19:11;101099.41;;;11.13;100.00
54882;BME280;40775;51.448;4.742;2023-12-28T09:21:38;101087.19;;;11.15;100.00
54882;BME280;40775;51.448;4.742;2023-12-28T09:24:06;101099.41;;;11.13;100.00
54882;BME280;40775;51.448;4.742;2023-12-28T09:26:34;101087.13;;;11.12;100.00
54882;BME280;40775;51.448;4.742;2023-12-28T09:29:01;101089.81;;;11.15;100.00
54882;BME280;40775;51.448;4.742;2023-12-28T09:31:28;101091.66;;;11.19;100.00
54882;BME280;40775;51.448;4.742;2023-12-28T09:33:55;101095.13;;;11.18;100.00
54882;BME280;40775;51.448;4.742;2023-12-28T09:36:23;101093.41;;;11.20;100.00
54882;BME280;40775;51.448;4.742;2023-12-28T09:38:50;101100.44;;;11.21;100.00
54882;BME280;40775;51.448;4.742;2023-12-28T09:41:24;101090.91;;;11.25;100.00
54882;BME280;40775;51.448;4.742;2023-12-28T09:44:09;101101.34;;;11.22;100.00
54882;BME280;40775;51.448;4.742;2023-12-28T09:46:41;101092.72;;;11.27;100.00
54882;BME280;40775;51.448;4.742;2023-12-28T09:49:10;101099.75;;;11.28;100.00
54882;BME280;40775;51.448;4.742;2023-12-28T09:51:37;101095.34;;;11.27;100.00
54882;BME280;40775;51.448;4.742;2023-12-28T09:54:05;101100.69;;;11.32;100.00
54882;BME280;40775;51.448;4.742;2023-12-28T09:56:32;101107.69;;;11.31;100.00
54882;BME280;40775;51.448;4.742;2023-12-28T09:59:01;101104.25;;;11.34;100.00
54882;BME280;40775;51.448;4.742;2023-12-28T10:01:29;101110.38;;;11.34;100.00
54882;BME280;40775;51.448;4.742;2023-12-28T10:03:56;101104.22;;;11.32;100.00
54882;BME280;40775;51.448;4.742;2023-12-28T10:06:23;101110.38;;;11.34;100.00
54882;BME280;40775;51.448;4.742;2023-12-28T10:08:50;101098.19;;;11.38;100.00
54882;BME280;40775;51.448;4.742;2023-12-28T10:11:20;101091.31;;;11.44;100.00
54882;BME280;40775;51.448;4.742;2023-12-28T10:13:51;101105.22;;;11.39;100.00
54882;BME280;40775;51.448;4.742;2023-12-28T10:16:18;101103.59;;;11.45;100.00
54882;BME280;40775;51.448;4.742;2023-12-28T10:18:45;101101.91;;;11.48;100.00
54882;BME280;40775;51.448;4.742;2023-12-28T10:21:12;101099.28;;;11.49;100.00
54882;BME280;40775;51.448;4.742;2023-12-28T10:23:40;101102.03;;;11.54;100.00
54882;BME280;40775;51.448;4.742;2023-12-28T10:26:08;101099.53;;;11.60;100.00
54882;BME280;40775;51.448;4.742;2023-12-28T10:28:35;101104.75;;;11.58;100.00
54882;BME280;40775;51.448;4.742;2023-12-28T10:31:08;101096.06;;;11.62;100.00
54882;BME280;40775;51.448;4.742;2023-12-28T10:33:36;101097.03;;;11.66;100.00
54882;BME280;40775;51.448;4.742;2023-12-28T10:36:08;101090.88;;;11.65;100.00
54882;BME280;40775;51.448;4.742;2023-12-28T10:38:37;101091.84;;;11.70;100.00
54882;BME280;40775;51.448;4.742;2023-12-28T10:41:08;101085.78;;;11.74;100.00
54882;BME280;40775;51.448;4.742;2023-12-28T10:43:47;101089.31;;;11.76;100.00
54882;BME280;40775;51.448;4.742;2023-12-28T10:46:30;101086.00;;;11.84;100.00
54882;BME280;40775;51.448;4.742;2023-12-28T10:49:19;101092.09;;;11.81;100.00
54882;BME280;40775;51.448;4.742;2023-12-28T10:51:52;101088.59;;;11.81;100.00
54882;BME280;40775;51.448;4.742;2023-12-28T10:54:47;101086.91;;;11.84;100.00
54882;BME280;40775;51.448;4.742;2023-12-28T10:57:29;101080.81;;;11.87;100.00
54882;BME280;40775;51.448;4.742;2023-12-28T11:00:13;101080.88;;;11.91;100.00
54882;BME280;40775;51.448;4.742;2023-12-28T11:02:51;101068.66;;;11.93;100.00
54882;BME280;40775;51.448;4.742;2023-12-28T11:05:22;101076.59;;;11.96;100.00
54882;BME280;40775;51.448;4.742;2023-12-28T11:07:50;101072.28;;;12.01;100.00
54882;BME280;40775;51.448;4.742;2023-12-28T11:10:24;101074.00;;;11.99;100.00
54882;BME280;40775;51.448;4.742;2023-12-28T11:12:56;101072.22;;;11.97;100.00
54882;BME280;40775;51.448;4.742;2023-12-28T11:15:25;101067.88;;;12.00;100.00
54882;BME280;40775;51.448;4.742;2023-12-28T11:17:53;101066.03;;;11.95;100.00
54882;BME280;40775;51.448;4.742;2023-12-28T11:20:20;101069.59;;;11.97;100.00
54882;BME280;40775;51.448;4.742;2023-12-28T11:22:49;101062.56;;;11.97;100.00
54882;BME280;40775;51.448;4.742;2023-12-28T11:25:18;101058.19;;;11.98;100.00
54882;BME280;40775;51.448;4.742;2023-12-28T11:27:46;101067.03;;;12.01;100.00
54882;BME280;40775;51.448;4.742;2023-12-28T11:30:14;101061.75;;;12.00;100.00
54882;BME280;40775;51.448;4.742;2023-12-28T11:32:43;101067.00;;;12.00;100.00
54882;BME280;40775;51.448;4.742;2023-12-28T11:35:13;101072.25;;;12.00;100.00
54882;BME280;40775;51.448;4.742;2023-12-28T11:37:48;101064.31;;;11.97;100.00
54882;BME280;40775;51.448;4.742;2023-12-28T11:40:19;101057.25;;;11.94;100.00
54882;BME280;40775;51.448;4.742;2023-12-28T11:42:54;101058.13;;;11.93;100.00
54882;BME280;40775;51.448;4.742;2023-12-28T11:45:24;101057.25;;;11.93;100.00
54882;BME280;40775;51.448;4.742;2023-12-28T11:48:02;101057.25;;;11.94;100.00
54882;BME280;40775;51.448;4.742;2023-12-28T11:50:31;101041.44;;;11.91;100.00
54882;BME280;40775;51.448;4.742;2023-12-28T11:52:58;101041.44;;;11.93;100.00
54882;BME280;40775;51.448;4.742;2023-12-28T11:55:26;101055.50;;;11.93;100.00
54882;BME280;40775;51.448;4.742;2023-12-28T11:57:53;101044.09;;;11.93;100.00
54882;BME280;40775;51.448;4.742;2023-12-28T12:00:20;101046.72;;;11.93;100.00
54882;BME280;40775;51.448;4.742;2023-12-28T12:02:51;101051.91;;;11.90;100.00
54882;BME280;40775;51.448;4.742;2023-12-28T12:05:18;101033.59;;;11.94;100.00
54882;BME280;40775;51.448;4.742;2023-12-28T12:07:45;101032.66;;;11.92;100.00
54882;BME280;40775;51.448;4.742;2023-12-28T12:10:15;101027.41;;;11.92;100.00
54882;BME280;40775;51.448;4.742;2023-12-28T12:12:43;101029.19;;;11.93;100.00
54882;BME280;40775;51.448;4.742;2023-12-28T12:15:11;101023.91;;;11.93;100.00
54882;BME280;40775;51.448;4.742;2023-12-28T12:17:39;101029.22;;;11.95;100.00
54882;BME280;40775;51.448;4.742;2023-12-28T12:20:07;101030.97;;;11.94;100.00
54882;BME280;40775;51.448;4.742;2023-12-28T12:22:35;101023.94;;;11.95;100.00
54882;BME280;40775;51.448;4.742;2023-12-28T12:25:06;101029.22;;;11.95;100.00
54882;BME280;40775;51.448;4.742;2023-12-28T12:27:36;101026.56;;;11.95;100.00
54882;BME280;40775;51.448;4.742;2023-12-28T12:30:06;101029.19;;;11.93;100.00
54882;BME280;40775;51.448;4.742;2023-12-28T12:32:34;101026.56;;;11.95;100.00
54882;BME280;40775;51.448;4.742;2023-12-28T12:35:06;101028.31;;;11.93;100.00
54882;BME280;40775;51.448;4.742;2023-12-28T12:37:34;101036.22;;;11.94;100.00
54882;BME280;40775;51.448;4.742;2023-12-28T12:40:03;101037.06;;;11.93;100.00
54882;BME280;40775;51.448;4.742;2023-12-28T12:42:30;101031.88;;;11.96;100.00
54882;BME280;40775;51.448;4.742;2023-12-28T12:44:57;101030.97;;;11.94;100.00
54882;BME280;40775;51.448;4.742;2023-12-28T12:47:25;101026.56;;;11.95;100.00